Time;durP1;ratioP1;P1;durP2;ratioP2;P2;SDS_P1;SDS_P2;PMS_P1;PMS_P2;Temp;Humidity;BMP_temperature;BMP_pressure;BME280_temperature;BME280_humidity;BME280_pressure;Samples;Min_cycle;Max_cycle;Signal;HPM_P1;HPM_P2
2024/04/23 00:00:03;;;;;;;;;;;;;;;;;;5303870;26;19977;-84
2024/04/23 00:02:29;;;;;;;;;;;;;;;;;;5313220;26;20357;-85
2024/04/23 00:04:56;;;;;;;;;;;;;;;;;;5309988;26;19933;-85
2024/04/23 00:07:23;;;;;;;;;;;;;;;;;;5299341;26;19927;-85
2024/04/23 00:09:51;;;;;;;;;;;;;;;;;;5306218;26;19934;-84
2024/04/23 00:12:18;;;;;;;;;;;;;;;;;;5301058;26;19933;-84
2024/04/23 00:14:45;;;;;;;;;;;;;;;;;;5310088;26;19925;-84
2024/04/23 00:17:11;;;;;;;;;;;;;;;;;;5294242;26;20013;-84
2024/04/23 00:47:05;;;;;;;;;;;;;;;;;;5244339;27;19938;-84
2024/04/23 00:49:31;;;;;;;;;;;;;;;;;;5251206;27;19934;-84
2024/04/23 00:51:57;;;;;;;;;;;;;;;;;;5260650;27;20033;-83
2024/04/23 00:54:23;;;;;;;;;;;;;;;;;;5249929;27;19926;-83
2024/04/23 00:56:49;;;;;;;;;;;;;;;;;;5257362;26;19941;-83
2024/04/23 00:59:15;;;;;;;;;;;;;;;;;;5247867;27;19927;-83
2024/04/23 01:01:41;;;;;;;;;;;;;;;;;;5258230;27;19933;-82
2024/04/23 01:04:07;;;;;;;;;;;;;;;;;;5257885;27;19994;-83
2024/04/23 01:06:33;;;;;;;;;;;;;;;;;;5262880;27;19926;-83
2024/04/23 01:08:59;;;;;;;;;;;;;;;;;;5257576;27;21960;-83
2024/04/23 01:11:27;;;;;;;;;;;;;;;;;;5253784;27;19935;-84
2024/04/23 01:13:55;;;;;;;;;;;;;;;;;;5291721;26;19957;-83
2024/04/23 01:16:21;;;;;;;;;;;;;;;;;;5251389;27;19939;-83
2024/04/23 01:18:46;;;;;;;;;;;;;;;;;;5282307;26;19926;-83
2024/04/23 01:21:12;;;;;;;;;;;;;;;;;;5260303;27;19934;-83
2024/04/23 01:23:40;;;;;;;;;;;;;;;;;;5260254;26;19927;-83
2024/04/23 01:26:09;;;;;;;;;;;;;;;;;;5255038;27;19927;-83
2024/04/23 01:28:36;;;;;;;;;;;;;;;;;;5265644;27;20001;-84
2024/04/23 01:31:02;;;;;;;;;;;;;;;;;;5255645;27;19933;-85
2024/04/23 01:33:28;;;;;;;;;;;;;;;;;;5262631;27;19935;-84
2024/04/23 01:35:54;;;;;;;;;;;;;;;;;;5259874;27;20749;-84
2024/04/23 01:38:20;;;;;;;;;;;;;;;;;;5257464;27;19945;-83
2024/04/23 01:40:46;;;;;;;;;;;;;;;;;;5286811;26;20480;-83
2024/04/23 01:43:13;;;;;;;;;;;;;;;;;;5248100;27;20266;-84
2024/04/23 01:45:39;;;;;;;;;;;;;;;;;;5258931;27;19927;-84
2024/04/23 01:48:06;;;;;;;;;;;;;;;;;;5249200;27;20004;-84
2024/04/23 01:50:32;;;;;;;;;;;;;;;;;;5259190;27;19997;-83
2024/04/23 01:52:57;;;;;;;;;;;;;;;;;;5262204;27;20712;-85
2024/04/23 01:55:23;;;;;;;;;;;;;;;;;;5264907;27;19942;-85
2024/04/23 01:57:49;;;;;;;;;;;;;;;;;;5265257;27;20461;-85
2024/04/23 02:00:15;;;;;;;;;;;;;;;;;;5261381;27;20424;-85
2024/04/23 02:02:41;;;;;;;;;;;;;;;;;;5268045;27;20020;-85
2024/04/23 02:05:07;;;;;;;;;;;;;;;;;;5272365;27;19934;-85
2024/04/23 02:07:33;;;;;;;;;;;;;;;;;;5271130;27;19935;-85
2024/04/23 02:09:59;;;;;;;;;;;;;;;;;;5275650;27;20849;-84
2024/04/23 02:12:25;;;;;;;;;;;;;;;;;;5269348;27;19940;-86
2024/04/23 02:14:51;;;;;;;;;;;;;;;;;;5265928;27;19934;-85
2024/04/23 02:17:17;;;;;;;;;;;;;;;;;;5289739;26;19942;-85
2024/04/23 02:19:43;;;;;;;;;;;;;;;;;;5255140;27;19934;-86
2024/04/23 02:22:09;;;;;;;;;;;;;;;;;;5250815;27;19927;-85
2024/04/23 02:24:36;;;;;;;;;;;;;;;;;;5253503;27;19934;-85
2024/04/23 02:27:03;;;;;;;;;;;;;;;;;;5252989;27;19942;-84
2024/04/23 02:29:29;;;;;;;;;;;;;;;;;;5251521;27;19934;-86
2024/04/23 02:31:55;;;;;;;;;;;;;;;;;;5254393;27;20274;-84
2024/04/23 02:34:21;;;;;;;;;;;;;;;;;;5252002;27;21330;-82
2024/04/23 02:36:47;;;;;;;;;;;;;;;;;;5251377;27;19967;-85
2024/04/23 02:39:12;;;;;;;;;;;;;;;;;;5250231;27;19935;-83
2024/04/23 02:41:38;;;;;;;;;;;;;;;;;;5253414;27;20023;-85
2024/04/23 02:44:04;;;;;;;;;;;;;;;;;;5245993;27;21669;-84
2024/04/23 02:46:30;;;;;;;;;;;;;;;;;;5251261;27;20006;-84
2024/04/23 02:48:56;;;;;;;;;;;;;;;;;;5253102;27;19934;-85
2024/04/23 02:51:22;;;;;;;;;;;;;;;;;;5251480;27;19935;-84
2024/04/23 02:53:48;;;;;;;;;;;;;;;;;;5246267;27;20505;-84
2024/04/23 02:56:14;;;;;;;;;;;;;;;;;;5248616;27;20900;-84
2024/04/23 02:58:40;;;;;;;;;;;;;;;;;;5249674;27;19927;-83
2024/04/23 03:01:06;;;;;;;;;;;;;;;;;;5246705;27;20032;-84
2024/04/23 03:03:32;;;;;;;;;;;;;;;;;;5250218;27;20853;-84
2024/04/23 03:05:58;;;;;;;;;;;;;;;;;;5250291;27;19938;-84
2024/04/23 03:08:24;;;;;;;;;;;;;;;;;;5243213;27;19935;-84
2024/04/23 03:10:50;;;;;;;;;;;;;;;;;;5248752;27;19935;-84
2024/04/23 03:13:16;;;;;;;;;;;;;;;;;;5241607;27;19974;-84
2024/04/23 03:15:42;;;;;;;;;;;;;;;;;;5243421;27;20222;-83
2024/04/23 03:18:09;;;;;;;;;;;;;;;;;;5242262;27;20254;-84
2024/04/23 03:20:35;;;;;;;;;;;;;;;;;;5249112;27;19968;-83
2024/04/23 03:23:01;;;;;;;;;;;;;;;;;;5239699;27;19931;-83
2024/04/23 03:25:27;;;;;;;;;;;;;;;;;;5242960;27;19958;-84
2024/04/23 03:27:53;;;;;;;;;;;;;;;;;;5243983;27;20263;-84
2024/04/23 03:30:19;;;;;;;;;;;;;;;;;;5243180;27;19934;-84
2024/04/23 03:32:45;;;;;;;;;;;;;;;;;;5246028;27;19968;-83
2024/04/23 03:35:11;;;;;;;;;;;;;;;;;;5233189;27;19936;-83
2024/04/23 03:37:37;;;;;;;;;;;;;;;;;;5244225;27;20050;-83
2024/04/23 03:40:03;;;;;;;;;;;;;;;;;;5237564;27;20654;-83
2024/04/23 03:42:29;;;;;;;;;;;;;;;;;;5238368;27;19997;-83
2024/04/23 03:44:55;;;;;;;;;;;;;;;;;;5234309;27;19927;-83
2024/04/23 03:47:21;;;;;;;;;;;;;;;;;;5238111;27;22188;-82
2024/04/23 03:49:47;;;;;;;;;;;;;;;;;;5243155;27;19934;-83
2024/04/23 03:52:13;;;;;;;;;;;;;;;;;;5239477;27;19935;-83
2024/04/23 03:54:40;;;;;;;;;;;;;;;;;;5240515;27;19935;-83
2024/04/23 03:57:06;;;;;;;;;;;;;;;;;;5237416;27;19927;-83
2024/04/23 03:59:32;;;;;;;;;;;;;;;;;;5237783;27;20208;-83
2024/04/23 04:07:27;;;;;;;;;;;;;;;;;;5243201;27;19938;-82
2024/04/23 04:09:53;;;;;;;;;;;;;;;;;;5242283;27;19935;-83
2024/04/23 04:12:19;;;;;;;;;;;;;;;;;;5240253;27;19994;-83
2024/04/23 04:14:45;;;;;;;;;;;;;;;;;;5243405;27;20446;-83
2024/04/23 04:17:11;;;;;;;;;;;;;;;;;;5264260;26;20498;-83
2024/04/23 04:19:40;;;;;;;;;;;;;;;;;;5304747;26;19933;-83
2024/04/23 04:22:07;;;;;;;;;;;;;;;;;;5316660;26;19933;-84
2024/04/23 04:24:33;;;;;;;;;;;;;;;;;;5304636;26;20377;-83
2024/04/23 04:26:59;;;;;;;;;;;;;;;;;;5307214;26;19941;-84
2024/04/23 04:29:25;;;;;;;;;;;;;;;;;;5301770;26;19940;-83
2024/04/23 04:31:51;;;;;;;;;;;;;;;;;;5324516;26;19945;-83
2024/04/23 04:34:17;;;;;;;;;;;;;;;;;;5313760;26;19933;-83
2024/04/23 04:36:42;;;;;;;;;;;;;;;;;;5324398;26;19976;-83
2024/04/23 04:39:08;;;;;;;;;;;;;;;;;;5297898;26;20598;-83
2024/04/23 04:41:34;;;;;;;;;;;;;;;;;;5324220;26;20439;-83
2024/04/23 04:44:00;;;;;;;;;;;;;;;;;;5322076;26;20003;-83
2024/04/23 04:46:26;;;;;;;;;;;;;;;;;;5328577;26;19933;-83
2024/04/23 04:48:52;;;;;;;;;;;;;;;;;;5298690;26;19996;-84
2024/04/23 04:51:19;;;;;;;;;;;;;;;;;;5322416;26;20364;-84
2024/04/23 04:53:45;;;;;;;;;;;;;;;;;;5291122;26;20275;-85
2024/04/23 04:56:11;;;;;;;;;;;;;;;;;;5321621;26;20417;-85
2024/04/23 04:58:39;;;;;;;;;;;;;;;;;;5322578;26;19932;-84
2024/04/23 05:01:05;;;;;;;;;;;;;;;;;;5326773;26;20505;-83
2024/04/23 05:03:31;;;;;;;;;;;;;;;;;;5300727;26;19934;-83
2024/04/23 05:05:57;;;;;;;;;;;;;;;;;;5297962;26;19947;-83
2024/04/23 05:08:23;;;;;;;;;;;;;;;;;;5303356;26;20015;-84
2024/04/23 05:10:49;;;;;;;;;;;;;;;;;;5327053;26;19926;-84
2024/04/23 05:13:15;;;;;;;;;;;;;;;;;;5327975;26;20798;-84
2024/04/23 05:15:40;;;;;;;;;;;;;;;;;;5302380;26;19926;-84
2024/04/23 05:18:07;;;;;;;;;;;;;;;;;;5321767;26;19926;-84
2024/04/23 05:20:33;;;;;;;;;;;;;;;;;;5298824;26;19961;-85
2024/04/23 05:22:59;;;;;;;;;;;;;;;;;;5326711;26;19977;-83
2024/04/23 05:25:24;;;;;;;;;;;;;;;;;;5305268;26;20656;-85
2024/04/23 05:27:50;;;;;;;;;;;;;;;;;;5302782;26;19937;-84
2024/04/23 05:33:06;;;;;;;;;;;;;;;;;;5253597;26;19982;-84
2024/04/23 05:35:32;;;;;;;;;;;;;;;;;;5268212;27;20308;-84
2024/04/23 05:37:58;;;;;;;;;;;;;;;;;;5273116;27;19927;-83
2024/04/23 05:40:24;;;;;;;;;;;;;;;;;;5246601;27;20005;-84
2024/04/23 05:42:50;;;;;;;;;;;;;;;;;;5254058;27;19934;-84
2024/04/23 05:45:16;;;;;;;;;;;;;;;;;;5216286;27;19991;-84
2024/04/23 05:47:42;;;;;;;;;;;;;;;;;;5225591;27;19959;-84
2024/04/23 05:50:09;;;;;;;;;;;;;;;;;;5248304;27;19948;-84
2024/04/23 05:52:35;;;;;;;;;;;;;;;;;;5251030;27;19927;-83
2024/04/23 05:55:01;;;;;;;;;;;;;;;;;;5248726;27;20410;-83
2024/04/23 05:57:27;;;;;;;;;;;;;;;;;;5254648;27;19934;-84
2024/04/23 05:59:53;;;;;;;;;;;;;;;;;;5224869;27;19927;-84
2024/04/23 06:02:21;;;;;;;;;;;;;;;;;;5247260;26;19935;-83
2024/04/23 06:04:47;;;;;;;;;;;;;;;;;;5252067;27;19940;-84
2024/04/23 06:07:13;;;;;;;;;;;;;;;;;;5247006;27;20353;-84
2024/04/23 06:09:39;;;;;;;;;;;;;;;;;;5273279;26;19945;-84
2024/04/23 06:12:05;;;;;;;;;;;;;;;;;;5301412;26;20542;-84
2024/04/23 06:14:31;;;;;;;;;;;;;;;;;;5308645;26;19949;-84
2024/04/23 06:16:58;;;;;;;;;;;;;;;;;;5321848;26;20004;-84
2024/04/23 06:19:25;;;;;;;;;;;;;;;;;;5332359;26;19938;-83
2024/04/23 06:21:52;;;;;;;;;;;;;;;;;;5305252;26;20014;-84
2024/04/23 06:24:18;;;;;;;;;;;;;;;;;;5320178;26;19952;-84
2024/04/23 06:26:44;;;;;;;;;;;;;;;;;;5306844;26;19934;-84
2024/04/23 06:29:10;;;;;;;;;;;;;;;;;;5297564;26;20541;-83
2024/04/23 06:31:38;;;;;;;;;;;;;;;;;;5302498;26;20722;-83
2024/04/23 06:34:04;;;;;;;;;;;;;;;;;;5294858;26;19926;-84
2024/04/23 06:36:30;;;;;;;;;;;;;;;;;;5314770;26;19981;-83
2024/04/23 06:38:56;;;;;;;;;;;;;;;;;;5325125;26;19946;-84
2024/04/23 06:41:22;;;;;;;;;;;;;;;;;;5326567;26;19973;-84
2024/04/23 06:43:48;;;;;;;;;;;;;;;;;;5321740;26;20007;-83
2024/04/23 06:46:16;;;;;;;;;;;;;;;;;;5310506;26;19985;-82
2024/04/23 06:48:43;;;;;;;;;;;;;;;;;;5333104;26;19933;-84
2024/04/23 06:51:09;;;;;;;;;;;;;;;;;;5302936;26;19925;-86
2024/04/23 06:53:35;;;;;;;;;;;;;;;;;;5329854;26;20022;-83
2024/04/23 06:56:01;;;;;;;;;;;;;;;;;;5325605;26;19932;-81
2024/04/23 06:58:28;;;;;;;;;;;;;;;;;;5325604;26;19933;-83
2024/04/23 07:00:54;;;;;;;;;;;;;;;;;;5303489;26;19935;-83
2024/04/23 07:03:20;;;;;;;;;;;;;;;;;;5298904;26;19938;-85
2024/04/23 07:05:46;;;;;;;;;;;;;;;;;;5323478;26;19950;-84
2024/04/23 07:08:12;;;;;;;;;;;;;;;;;;5349062;26;19950;-86
2024/04/23 07:10:39;;;;;;;;;;;;;;;;;;5332581;26;19925;-85
2024/04/23 07:13:05;;;;;;;;;;;;;;;;;;5327457;26;19944;-84
2024/04/23 07:15:31;;;;;;;;;;;;;;;;;;5336865;26;21085;-84
2024/04/23 07:17:57;;;;;;;;;;;;;;;;;;5337488;26;19929;-84
2024/04/23 07:20:24;;;;;;;;;;;;;;;;;;5305660;26;19926;-85
2024/04/23 07:22:51;;;;;;;;;;;;;;;;;;5308240;26;19934;-85
2024/04/23 07:25:17;;;;;;;;;;;;;;;;;;5302719;26;20032;-84
2024/04/23 07:27:43;;;;;;;;;;;;;;;;;;5297980;26;20427;-85
2024/04/23 07:30:09;;;;;;;;;;;;;;;;;;5337987;26;19926;-85
2024/04/23 07:32:36;;;;;;;;;;;;;;;;;;5316332;26;19937;-85
2024/04/23 07:35:02;;;;;;;;;;;;;;;;;;5305516;26;19933;-85
2024/04/23 07:37:28;;;;;;;;;;;;;;;;;;5308571;26;19925;-85
2024/04/23 07:39:54;;;;;;;;;;;;;;;;;;5330367;26;19937;-85
2024/04/23 07:42:20;;;;;;;;;;;;;;;;;;5300419;26;21511;-86
2024/04/23 07:44:46;;;;;;;;;;;;;;;;;;5327230;26;19950;-86
2024/04/23 07:47:12;;;;;;;;;;;;;;;;;;5329776;26;20559;-86
2024/04/23 07:49:38;;;;;;;;;;;;;;;;;;5301889;26;20028;-84
2024/04/23 07:52:04;;;;;;;;;;;;;;;;;;5302441;26;19945;-85
2024/04/23 07:54:30;;;;;;;;;;;;;;;;;;5305298;26;19934;-87
2024/04/23 07:56:56;;;;;;;;;;;;;;;;;;5333970;26;19932;-87
2024/04/23 07:59:22;;;;;;;;;;;;;;;;;;5306050;26;19941;-86
2024/04/23 08:01:48;;;;;;;;;;;;;;;;;;5302871;26;20455;-86
2024/04/23 08:04:14;;;;;;;;;;;;;;;;;;5303638;26;19933;-87
2024/04/23 08:06:40;;;;;;;;;;;;;;;;;;5309111;26;19938;-86
2024/04/23 08:09:06;;;;;;;;;;;;;;;;;;5328010;26;20007;-86
2024/04/23 08:11:32;;;;;;;;;;;;;;;;;;5326023;26;19966;-86
2024/04/23 08:13:58;;;;;;;;;;;;;;;;;;5336014;26;19980;-86
2024/04/23 08:16:24;;;;;;;;;;;;;;;;;;5319831;26;19926;-87
2024/04/23 08:18:50;;;;;;;;;;;;;;;;;;5341477;26;20514;-87
2024/04/23 08:21:16;;;;;;;;;;;;;;;;;;5332100;26;19940;-88
2024/04/23 08:23:42;;;;;;;;;;;;;;;;;;5330972;26;19925;-85
2024/04/23 08:26:14;;;;;;;;;;;;;;;;;;5304949;26;19933;-87
2024/04/23 08:28:40;;;;;;;;;;;;;;;;;;5310413;26;19933;-87
2024/04/23 08:31:06;;;;;;;;;;;;;;;;;;5310160;26;20470;-88
2024/04/23 08:33:34;;;;;;;;;;;;;;;;;;5331440;26;19961;-87
2024/04/23 08:36:00;;;;;;;;;;;;;;;;;;5329459;26;19981;-87
2024/04/23 08:38:26;;;;;;;;;;;;;;;;;;5341386;26;20511;-87
2024/04/23 08:40:52;;;;;;;;;;;;;;;;;;5339350;26;19926;-87
2024/04/23 08:43:18;;;;;;;;;;;;;;;;;;5341931;26;19934;-87
2024/04/23 08:45:45;;;;;;;;;;;;;;;;;;5341256;26;19934;-88
2024/04/23 08:48:11;;;;;;;;;;;;;;;;;;5316164;26;19925;-87
2024/04/23 08:50:37;;;;;;;;;;;;;;;;;;5313285;26;20373;-88
2024/04/23 08:53:04;;;;;;;;;;;;;;;;;;5311347;26;19941;-87
2024/04/23 08:55:30;;;;;;;;;;;;;;;;;;5336288;26;19933;-87
2024/04/23 08:57:56;;;;;;;;;;;;;;;;;;5315903;26;20347;-87
2024/04/23 09:00:23;;;;;;;;;;;;;;;;;;5310361;26;20675;-84
2024/04/23 09:02:50;;;;;;;;;;;;;;;;;;5333841;26;19968;-84
2024/04/23 09:05:16;;;;;;;;;;;;;;;;;;5304388;26;19938;-85
2024/04/23 09:07:42;;;;;;;;;;;;;;;;;;5331853;26;19933;-84
2024/04/23 09:10:09;;;;;;;;;;;;;;;;;;5308090;26;19969;-86
2024/04/23 09:12:35;;;;;;;;;;;;;;;;;;5310562;26;19934;-85
2024/04/23 09:15:01;;;;;;;;;;;;;;;;;;5326929;26;20507;-87
2024/04/23 09:17:27;;;;;;;;;;;;;;;;;;5337482;26;19933;-86
2024/04/23 09:19:54;;;;;;;;;;;;;;;;;;5306787;26;19932;-85
2024/04/23 09:22:20;;;;;;;;;;;;;;;;;;5307454;26;19926;-86
2024/04/23 09:24:45;;;;;;;;;;;;;;;;;;5309427;26;20044;-85
2024/04/23 09:27:11;;;;;;;;;;;;;;;;;;5304100;26;19949;-84
2024/04/23 09:29:37;;;;;;;;;;;;;;;;;;5305947;26;19933;-83
2024/04/23 09:32:03;;;;;;;;;;;;;;;;;;5301414;26;19933;-86
2024/04/23 09:34:30;;;;;;;;;;;;;;;;;;5308702;26;19926;-86
2024/04/23 09:36:56;;;;;;;;;;;;;;;;;;5308927;26;20200;-84
2024/04/23 09:39:22;;;;;;;;;;;;;;;;;;5329151;26;20372;-84
2024/04/23 09:41:51;;;;;;;;;;;;;;;;;;5331839;26;19933;-85
2024/04/23 09:44:19;;;;;;;;;;;;;;;;;;5300661;26;19974;-85
2024/04/23 09:46:45;;;;;;;;;;;;;;;;;;5333634;26;19926;-84
2024/04/23 09:49:12;;;;;;;;;;;;;;;;;;5297247;26;20502;-85
2024/04/23 09:51:38;;;;;;;;;;;;;;;;;;5328560;26;19934;-84
2024/04/23 09:54:04;;;;;;;;;;;;;;;;;;5316510;26;20001;-84
2024/04/23 09:56:30;;;;;;;;;;;;;;;;;;5310665;26;19926;-84
2024/04/23 09:58:56;;;;;;;;;;;;;;;;;;5325096;26;19933;-83
2024/04/23 10:01:23;;;;;;;;;;;;;;;;;;5298932;26;19973;-83
2024/04/23 10:03:50;;;;;;;;;;;;;;;;;;5301979;26;19925;-84
2024/04/23 10:06:18;;;;;;;;;;;;;;;;;;5300584;26;19926;-84
2024/04/23 10:08:44;;;;;;;;;;;;;;;;;;5306682;26;19933;-84
2024/04/23 10:11:10;;;;;;;;;;;;;;;;;;5323121;26;19941;-85
2024/04/23 10:13:36;;;;;;;;;;;;;;;;;;5295881;26;19926;-85
2024/04/23 10:16:02;;;;;;;;;;;;;;;;;;5294985;26;19925;-85
2024/04/23 10:18:28;;;;;;;;;;;;;;;;;;5329676;26;19926;-84
2024/04/23 10:20:54;;;;;;;;;;;;;;;;;;5306482;26;20009;-84
2024/04/23 10:23:20;;;;;;;;;;;;;;;;;;5321922;26;21910;-84
2024/04/23 10:25:46;;;;;;;;;;;;;;;;;;5294479;26;19940;-83
2024/04/23 10:28:12;;;;;;;;;;;;;;;;;;5325348;26;19929;-84
2024/04/23 10:30:38;;;;;;;;;;;;;;;;;;5326685;26;19934;-83
2024/04/23 10:33:04;;;;;;;;;;;;;;;;;;5324670;26;19946;-84
2024/04/23 10:35:30;;;;;;;;;;;;;;;;;;5306250;26;20429;-82
2024/04/23 10:37:56;;;;;;;;;;;;;;;;;;5307053;26;19934;-85
2024/04/23 10:40:22;;;;;;;;;;;;;;;;;;5324817;26;20029;-82
2024/04/23 10:42:48;;;;;;;;;;;;;;;;;;5310545;26;19925;-84
2024/04/23 10:45:16;;;;;;;;;;;;;;;;;;5324200;26;19926;-84
2024/04/23 10:47:42;;;;;;;;;;;;;;;;;;5303228;26;19991;-83
2024/04/23 10:50:08;;;;;;;;;;;;;;;;;;5303234;26;19933;-83
2024/04/23 10:52:36;;;;;;;;;;;;;;;;;;5327025;26;19926;-81
2024/04/23 10:55:01;;;;;;;;;;;;;;;;;;5323900;26;20000;-83
2024/04/23 10:57:28;;;;;;;;;;;;;;;;;;5326719;26;19940;-82
2024/04/23 10:59:54;;;;;;;;;;;;;;;;;;5304642;26;20352;-83
2024/04/23 11:02:19;;;;;;;;;;;;;;;;;;5301133;26;20486;-83
2024/04/23 11:04:47;;;;;;;;;;;;;;;;;;5306624;26;19925;-83
2024/04/23 11:07:14;;;;;;;;;;;;;;;;;;5325136;26;19969;-83
2024/04/23 11:09:40;;;;;;;;;;;;;;;;;;5333075;26;19925;-84
2024/04/23 11:12:06;;;;;;;;;;;;;;;;;;5323441;26;19941;-83
2024/04/23 11:14:32;;;;;;;;;;;;;;;;;;5330425;26;19934;-83
2024/04/23 11:16:58;;;;;;;;;;;;;;;;;;5303563;26;19934;-83
2024/04/23 11:19:24;;;;;;;;;;;;;;;;;;5304026;26;19926;-84
2024/04/23 11:21:51;;;;;;;;;;;;;;;;;;5339501;26;20378;-83
2024/04/23 11:24:18;;;;;;;;;;;;;;;;;;5328689;26;20035;-84
2024/04/23 11:26:44;;;;;;;;;;;;;;;;;;5334674;26;19930;-84
2024/04/23 11:29:10;;;;;;;;;;;;;;;;;;5334320;26;19933;-85
2024/04/23 11:31:36;;;;;;;;;;;;;;;;;;5328301;26;19946;-86
2024/04/23 11:34:03;;;;;;;;;;;;;;;;;;5335083;26;20488;-87
2024/04/23 11:36:29;;;;;;;;;;;;;;;;;;5314906;26;19925;-86
2024/04/23 11:39:00;;;;;;;;;;;;;;;;;;5330441;26;19931;-86
2024/04/23 11:41:26;;;;;;;;;;;;;;;;;;5338120;26;19933;-86
2024/04/23 11:43:52;;;;;;;;;;;;;;;;;;5313713;26;19926;-86
2024/04/23 11:46:19;;;;;;;;;;;;;;;;;;5311818;26;21801;-85
2024/04/23 11:48:45;;;;;;;;;;;;;;;;;;5311191;26;19995;-86
2024/04/23 11:51:11;;;;;;;;;;;;;;;;;;5301753;26;19938;-85
2024/04/23 11:53:37;;;;;;;;;;;;;;;;;;5336148;26;19933;-86
2024/04/23 11:56:04;;;;;;;;;;;;;;;;;;5331689;26;20353;-85
2024/04/23 11:58:29;;;;;;;;;;;;;;;;;;5330645;26;19925;-85
2024/04/23 12:00:55;;;;;;;;;;;;;;;;;;5313583;26;20671;-85
2024/04/23 12:03:21;;;;;;;;;;;;;;;;;;5307790;26;19934;-84
2024/04/23 12:05:49;;;;;;;;;;;;;;;;;;5312548;26;19933;-86
2024/04/23 12:08:15;;;;;;;;;;;;;;;;;;5329725;26;19955;-85
2024/04/23 12:10:41;;;;;;;;;;;;;;;;;;5318770;26;19996;-86
2024/04/23 12:13:07;;;;;;;;;;;;;;;;;;5337132;26;21808;-85
2024/04/23 12:15:34;;;;;;;;;;;;;;;;;;5329747;26;20457;-85
2024/04/23 12:18:00;;;;;;;;;;;;;;;;;;5334985;26;19933;-83
2024/04/23 12:20:27;;;;;;;;;;;;;;;;;;5327188;26;20003;-84
2024/04/23 12:22:53;;;;;;;;;;;;;;;;;;5300797;26;19950;-84
2024/04/23 12:25:19;;;;;;;;;;;;;;;;;;5308172;26;19933;-85
2024/04/23 12:27:46;;;;;;;;;;;;;;;;;;5306469;26;19933;-85
2024/04/23 12:30:12;;;;;;;;;;;;;;;;;;5322648;26;19993;-84
2024/04/23 12:32:43;;;;;;;;;;;;;;;;;;5326212;26;19933;-84
2024/04/23 12:35:09;;;;;;;;;;;;;;;;;;5301080;26;19926;-84
2024/04/23 12:37:35;;;;;;;;;;;;;;;;;;5301764;26;19950;-84
2024/04/23 12:40:04;;;;;;;;;;;;;;;;;;5322519;26;20341;-83
2024/04/23 12:42:30;;;;;;;;;;;;;;;;;;5336487;26;19949;-84
2024/04/23 12:44:56;;;;;;;;;;;;;;;;;;5306591;26;19933;-84
2024/04/23 12:47:23;;;;;;;;;;;;;;;;;;5300997;26;19945;-84
2024/04/23 12:49:51;;;;;;;;;;;;;;;;;;5318740;26;19940;-84
2024/04/23 12:52:17;;;;;;;;;;;;;;;;;;5295619;26;19925;-84
2024/04/23 12:54:43;;;;;;;;;;;;;;;;;;5304745;26;19926;-84
2024/04/23 12:57:11;;;;;;;;;;;;;;;;;;5329239;26;19961;-84
2024/04/23 12:59:38;;;;;;;;;;;;;;;;;;5305252;26;19934;-84
2024/04/23 13:02:07;;;;;;;;;;;;;;;;;;5323112;26;19934;-84
2024/04/23 13:04:33;;;;;;;;;;;;;;;;;;5300971;26;20732;-85
2024/04/23 13:07:00;;;;;;;;;;;;;;;;;;5320775;26;19933;-84
2024/04/23 13:09:26;;;;;;;;;;;;;;;;;;5291640;26;19933;-83
2024/04/23 13:11:52;;;;;;;;;;;;;;;;;;5302920;26;19941;-84
2024/04/23 13:14:18;;;;;;;;;;;;;;;;;;5295911;26;19938;-84
2024/04/23 13:16:46;;;;;;;;;;;;;;;;;;5299691;26;19934;-83
2024/04/23 13:19:12;;;;;;;;;;;;;;;;;;5287990;26;20858;-83
2024/04/23 13:21:38;;;;;;;;;;;;;;;;;;5291938;26;19926;-83
2024/04/23 13:24:04;;;;;;;;;;;;;;;;;;5287398;26;19933;-84
2024/04/23 13:26:30;;;;;;;;;;;;;;;;;;5295780;26;21018;-83
2024/04/23 13:28:56;;;;;;;;;;;;;;;;;;5295177;26;19925;-83
2024/04/23 13:31:22;;;;;;;;;;;;;;;;;;5295200;26;20993;-84
2024/04/23 13:33:49;;;;;;;;;;;;;;;;;;5318943;26;20004;-83
2024/04/23 13:36:16;;;;;;;;;;;;;;;;;;5295901;26;19942;-83
2024/04/23 13:38:45;;;;;;;;;;;;;;;;;;5302507;26;19941;-83
2024/04/23 13:41:11;;;;;;;;;;;;;;;;;;5294674;26;19933;-83
2024/04/23 13:43:37;;;;;;;;;;;;;;;;;;5304310;26;19934;-82
2024/04/23 13:46:03;;;;;;;;;;;;;;;;;;5286981;26;19934;-84
2024/04/23 13:48:29;;;;;;;;;;;;;;;;;;5294682;26;20445;-82
2024/04/23 13:50:55;;;;;;;;;;;;;;;;;;5295277;26;19971;-82
2024/04/23 13:53:21;;;;;;;;;;;;;;;;;;5298764;26;23156;-81
2024/04/23 13:55:47;;;;;;;;;;;;;;;;;;5295135;26;19988;-82
2024/04/23 13:58:13;;;;;;;;;;;;;;;;;;5312510;26;19933;-81
2024/04/23 14:00:39;;;;;;;;;;;;;;;;;;5318202;26;19933;-81
2024/04/23 14:03:05;;;;;;;;;;;;;;;;;;5292171;26;19925;-82
2024/04/23 14:05:31;;;;;;;;;;;;;;;;;;5299392;26;20868;-82
2024/04/23 14:07:57;;;;;;;;;;;;;;;;;;5294145;26;19926;-82
2024/04/23 14:10:23;;;;;;;;;;;;;;;;;;5296803;26;20029;-83
2024/04/23 14:12:49;;;;;;;;;;;;;;;;;;5296952;26;20487;-83
2024/04/23 14:15:17;;;;;;;;;;;;;;;;;;5278453;26;19946;-83
2024/04/23 14:17:43;;;;;;;;;;;;;;;;;;5295192;26;19974;-83
2024/04/23 14:20:09;;;;;;;;;;;;;;;;;;5291370;26;20608;-82
2024/04/23 14:22:35;;;;;;;;;;;;;;;;;;5280670;26;19934;-84
2024/04/23 14:25:03;;;;;;;;;;;;;;;;;;5307061;26;20581;-83
2024/04/23 14:27:30;;;;;;;;;;;;;;;;;;5322850;26;20600;-83
2024/04/23 14:29:56;;;;;;;;;;;;;;;;;;5291227;26;19934;-82
2024/04/23 14:32:22;;;;;;;;;;;;;;;;;;5292625;26;19957;-83
2024/04/23 14:34:49;;;;;;;;;;;;;;;;;;5318681;26;19926;-82
2024/04/23 14:37:15;;;;;;;;;;;;;;;;;;5296476;26;19925;-83
2024/04/23 14:39:42;;;;;;;;;;;;;;;;;;5298545;26;20467;-83
2024/04/23 14:42:08;;;;;;;;;;;;;;;;;;5296069;26;19941;-84
2024/04/23 14:44:34;;;;;;;;;;;;;;;;;;5322323;26;19933;-91
2024/04/23 14:47:02;;;;;;;;;;;;;;;;;;5324401;26;19937;-90
2024/04/23 14:49:28;;;;;;;;;;;;;;;;;;5324462;26;20482;-94
2024/04/23 14:51:54;;;;;;;;;;;;;;;;;;5313413;26;19930;-86
2024/04/23 14:54:20;;;;;;;;;;;;;;;;;;5300036;26;19925;-88
2024/04/23 14:56:49;;;;;;;;;;;;;;;;;;5329608;26;19933;-88
2024/04/23 14:59:15;;;;;;;;;;;;;;;;;;5305806;26;19941;-88
2024/04/23 15:01:41;;;;;;;;;;;;;;;;;;5330832;26;19925;-88
2024/04/23 15:04:07;;;;;;;;;;;;;;;;;;5305941;26;19926;-87
2024/04/23 15:06:34;;;;;;;;;;;;;;;;;;5306830;26;19962;-87
2024/04/23 15:09:00;;;;;;;;;;;;;;;;;;5308629;26;20005;-88
2024/04/23 15:11:26;;;;;;;;;;;;;;;;;;5305131;26;19926;-87
2024/04/23 15:13:52;;;;;;;;;;;;;;;;;;5335096;26;19944;-88
2024/04/23 15:16:18;;;;;;;;;;;;;;;;;;5334003;26;19925;-88
2024/04/23 15:18:44;;;;;;;;;;;;;;;;;;5323747;26;19934;-88
2024/04/23 15:21:10;;;;;;;;;;;;;;;;;;5335636;26;19925;-88
2024/04/23 15:23:36;;;;;;;;;;;;;;;;;;5334161;26;20375;-89
2024/04/23 15:26:03;;;;;;;;;;;;;;;;;;5314545;26;20884;-89
2024/04/23 15:28:29;;;;;;;;;;;;;;;;;;5332693;26;19946;-90
2024/04/23 15:30:55;;;;;;;;;;;;;;;;;;5329064;26;19926;-88
2024/04/23 15:33:21;;;;;;;;;;;;;;;;;;5307202;26;19942;-86
2024/04/23 15:35:47;;;;;;;;;;;;;;;;;;5341868;26;19930;-88
2024/04/23 15:38:13;;;;;;;;;;;;;;;;;;5335584;26;20025;-90
2024/04/23 15:40:39;;;;;;;;;;;;;;;;;;5341118;26;19925;-90
2024/04/23 15:43:06;;;;;;;;;;;;;;;;;;5330808;26;19933;-91
2024/04/23 15:45:34;;;;;;;;;;;;;;;;;;5313616;26;20419;-92
2024/04/23 15:48:00;;;;;;;;;;;;;;;;;;5316801;26;19933;-92
2024/04/23 15:50:26;;;;;;;;;;;;;;;;;;5318213;26;20495;-90
2024/04/23 15:52:52;;;;;;;;;;;;;;;;;;5316134;26;20051;-91
2024/04/23 15:55:18;;;;;;;;;;;;;;;;;;5316951;26;19937;-93
2024/04/23 15:57:44;;;;;;;;;;;;;;;;;;5319985;26;19933;-94
2024/04/23 16:00:10;;;;;;;;;;;;;;;;;;5316670;26;19934;-92
2024/04/23 16:02:37;;;;;;;;;;;;;;;;;;5319858;26;19925;-92
2024/04/23 16:05:04;;;;;;;;;;;;;;;;;;5315499;26;20016;-89
2024/04/23 16:07:30;;;;;;;;;;;;;;;;;;5348161;26;19933;-92
2024/04/23 16:09:57;;;;;;;;;;;;;;;;;;5343986;26;19925;-92
2024/04/23 16:12:23;;;;;;;;;;;;;;;;;;5315110;26;21414;-91
2024/04/23 16:14:50;;;;;;;;;;;;;;;;;;5343733;26;20049;-90
2024/04/23 16:17:16;;;;;;;;;;;;;;;;;;5325505;26;19999;-92
2024/04/23 16:19:42;;;;;;;;;;;;;;;;;;5355791;26;19941;-92
2024/04/23 16:22:09;;;;;;;;;;;;;;;;;;5345306;26;20000;-92
2024/04/23 16:24:36;;;;;;;;;;;;;;;;;;5316643;26;19933;-92
2024/04/23 16:27:05;;;;;;;;;;;;;;;;;;5360257;26;19934;-90
2024/04/23 16:29:31;;;;;;;;;;;;;;;;;;5326368;26;19926;-92
2024/04/23 16:32:00;;;;;;;;;;;;;;;;;;5323791;26;20353;-91
2024/04/23 16:34:27;;;;;;;;;;;;;;;;;;5341777;26;19997;-91
2024/04/23 16:36:53;;;;;;;;;;;;;;;;;;5324917;26;19925;-92
2024/04/23 16:39:20;;;;;;;;;;;;;;;;;;5343968;26;19999;-93
2024/04/23 16:41:46;;;;;;;;;;;;;;;;;;5349277;26;19938;-93
2024/04/23 16:44:13;;;;;;;;;;;;;;;;;;5343873;26;19938;-92
2024/04/23 16:46:39;;;;;;;;;;;;;;;;;;5346778;26;19932;-91
2024/04/23 16:49:06;;;;;;;;;;;;;;;;;;5339908;26;19961;-92
2024/04/23 16:51:32;;;;;;;;;;;;;;;;;;5352217;26;20010;-92
2024/04/23 16:54:02;;;;;;;;;;;;;;;;;;5342905;26;19941;-92
2024/04/23 16:56:28;;;;;;;;;;;;;;;;;;5318809;26;19941;-92
2024/04/23 16:58:56;;;;;;;;;;;;;;;;;;5340299;26;19956;-91
2024/04/23 17:01:23;;;;;;;;;;;;;;;;;;5348484;26;19938;-91
2024/04/23 17:03:50;;;;;;;;;;;;;;;;;;5355494;26;19972;-91
2024/04/23 17:06:18;;;;;;;;;;;;;;;;;;5322819;26;19926;-91
2024/04/23 17:08:45;;;;;;;;;;;;;;;;;;5327386;26;19933;-92
2024/04/23 17:11:11;;;;;;;;;;;;;;;;;;5324157;26;19933;-95
2024/04/23 17:13:38;;;;;;;;;;;;;;;;;;5333506;26;19926;-93